PAL101 PHNL-RPLL
Flight info
| Callsign | PAL101 |
|---|---|
| Flight time | N/A |
| Altitude | 38000 |
| Route | KEOLA3 PUPPI DCT DOGIF DCT 26N170W 27N180E 27N170E 26N160E/N0486F400 24N150E 21N140E 19N130E DCT MUPOB Z153 POLIO POLIO5R |
| Aircraft | A359/H-SDE2E3GHIJ3J4J5LM1ORWXY/LB1D1 |
Departure
| Time | 2026-05-08 04:22 |
|---|---|
| Airport | Daniel K. Inouye International Airport (PHNL) |
Arrival
| Time | N/A |
|---|---|
| Airport | Ninoy Aquino International Airport (RPLL) |
| Time | Latitude | Longitude | Altitude | Speed | Heading |
|---|---|---|---|---|---|
| 2026-05-08 03:46 | 21.32888 | -157.92324 | 30 ft | 0 kts | 319° |
| 2026-05-08 04:05 | 21.32871 | -157.92308 | 24 ft | 4 kts | 319° |
| 2026-05-08 04:05 | 21.32851 | -157.92289 | 20 ft | 4 kts | 319° |
| 2026-05-08 04:06 | 21.32830 | -157.92270 | 27 ft | 4 kts | 319° |
| 2026-05-08 04:06 | 21.32810 | -157.92251 | 29 ft | 4 kts | 319° |
| 2026-05-08 04:06 | 21.32794 | -157.92236 | 28 ft | 4 kts | 317° |
| 2026-05-08 04:06 | 21.32777 | -157.92215 | 30 ft | 4 kts | 294° |
| 2026-05-08 04:07 | 21.32772 | -157.92192 | 29 ft | 4 kts | 269° |
| 2026-05-08 04:07 | 21.32773 | -157.92163 | 30 ft | 4 kts | 269° |
| 2026-05-08 04:07 | 21.32773 | -157.92154 | 30 ft | 0 kts | 269° |
| 2026-05-08 04:11 | 21.32773 | -157.92155 | 30 ft | 0 kts | 269° |
| 2026-05-08 04:11 | 21.32773 | -157.92166 | 30 ft | 3 kts | 269° |
| 2026-05-08 04:11 | 21.32772 | -157.92212 | 30 ft | 9 kts | 270° |
| 2026-05-08 04:11 | 21.32773 | -157.92300 | 30 ft | 14 kts | 270° |
| 2026-05-08 04:12 | 21.32774 | -157.92420 | 30 ft | 17 kts | 270° |
| 2026-05-08 04:12 | 21.32774 | -157.92556 | 30 ft | 19 kts | 270° |
| 2026-05-08 04:12 | 21.32772 | -157.92706 | 30 ft | 21 kts | 261° |
| 2026-05-08 04:12 | 21.32744 | -157.92861 | 30 ft | 22 kts | 269° |
| 2026-05-08 04:13 | 21.32743 | -157.93031 | 31 ft | 23 kts | 269° |
| 2026-05-08 04:13 | 21.32741 | -157.93208 | 31 ft | 25 kts | 269° |
| 2026-05-08 04:13 | 21.32740 | -157.93395 | 31 ft | 26 kts | 269° |
| 2026-05-08 04:13 | 21.32738 | -157.93590 | 31 ft | 27 kts | 269° |
| 2026-05-08 04:14 | 21.32739 | -157.93792 | 31 ft | 27 kts | 273° |
| 2026-05-08 04:14 | 21.32743 | -157.93998 | 31 ft | 28 kts | 270° |
| 2026-05-08 04:14 | 21.32650 | -157.94115 | 31 ft | 20 kts | 210° |
| 2026-05-08 04:14 | 21.32567 | -157.94165 | 31 ft | 14 kts | 209° |
| 2026-05-08 04:15 | 21.32474 | -157.94220 | 31 ft | 16 kts | 209° |
| 2026-05-08 04:15 | 21.32368 | -157.94283 | 31 ft | 19 kts | 209° |
| 2026-05-08 04:15 | 21.32246 | -157.94356 | 31 ft | 21 kts | 209° |
| 2026-05-08 04:15 | 21.32116 | -157.94434 | 31 ft | 22 kts | 209° |
| 2026-05-08 04:16 | 21.31977 | -157.94518 | 30 ft | 24 kts | 210° |
| 2026-05-08 04:16 | 21.31842 | -157.94598 | 31 ft | 25 kts | 208° |
| 2026-05-08 04:17 | 21.31830 | -157.94605 | 30 ft | 25 kts | 208° |
| 2026-05-08 04:17 | 21.31661 | -157.94660 | 31 ft | 26 kts | 178° |
| 2026-05-08 04:17 | 21.31476 | -157.94638 | 30 ft | 27 kts | 173° |
| 2026-05-08 04:17 | 21.31283 | -157.94613 | 30 ft | 28 kts | 173° |
| 2026-05-08 04:18 | 21.31142 | -157.94594 | 30 ft | 20 kts | 173° |
| 2026-05-08 04:18 | 21.30995 | -157.94575 | 31 ft | 22 kts | 174° |
| 2026-05-08 04:18 | 21.30839 | -157.94571 | 31 ft | 23 kts | 181° |
| 2026-05-08 04:18 | 21.30692 | -157.94537 | 31 ft | 19 kts | 121° |
| 2026-05-08 04:19 | 21.30682 | -157.94449 | 34 ft | 0 kts | 89° |
| 2026-05-08 04:21 | 21.30682 | -157.94375 | 35 ft | 35 kts | 91° |
| 2026-05-08 04:21 | 21.30680 | -157.93838 | 35 ft | 111 kts | 89° |
| 2026-05-08 04:21 | 21.30678 | -157.92756 | 119 ft | 169 kts | 88° |
| 2026-05-08 04:22 | 21.30589 | -157.91512 | 1023 ft | 167 kts | 97° |
| 2026-05-08 04:22 | 21.29992 | -157.90368 | 1688 ft | 197 kts | 131° |
| 2026-05-08 04:22 | 21.28692 | -157.89622 | 2053 ft | 226 kts | 159° |
| 2026-05-08 04:22 | 21.27084 | -157.89209 | 2261 ft | 251 kts | 169° |
| 2026-05-08 04:23 | 21.25290 | -157.89419 | 2604 ft | 271 kts | 199° |
| 2026-05-08 04:23 | 21.23793 | -157.90679 | 3088 ft | 280 kts | 236° |
| 2026-05-08 04:23 | 21.23190 | -157.92633 | 3741 ft | 278 kts | 270° |
| 2026-05-08 04:23 | 21.23287 | -157.93986 | 4265 ft | 273 kts | 277° |
| 2026-05-08 04:24 | 21.23089 | -157.96000 | 4918 ft | 273 kts | 253° |
| 2026-05-08 04:24 | 21.22541 | -157.97956 | 5523 ft | 275 kts | 253° |
| 2026-05-08 04:24 | 21.22024 | -157.99924 | 6163 ft | 276 kts | 255° |
| 2026-05-08 04:24 | 21.21553 | -158.01911 | 6845 ft | 275 kts | 256° |
| 2026-05-08 04:25 | 21.21143 | -158.03920 | 7477 ft | 277 kts | 260° |
| 2026-05-08 04:25 | 21.21062 | -158.05979 | 8116 ft | 279 kts | 275° |
| 2026-05-08 04:25 | 21.21368 | -158.08029 | 8836 ft | 278 kts | 280° |
| 2026-05-08 04:25 | 21.21723 | -158.10063 | 9515 ft | 278 kts | 279° |
| 2026-05-08 04:26 | 21.22093 | -158.12100 | 10135 ft | 280 kts | 281° |
| 2026-05-08 04:26 | 21.22495 | -158.14201 | 10406 ft | 295 kts | 281° |
| 2026-05-08 04:26 | 21.22933 | -158.16385 | 10634 ft | 310 kts | 282° |
| 2026-05-08 04:26 | 21.23407 | -158.18699 | 10879 ft | 323 kts | 281° |
| 2026-05-08 04:27 | 21.23901 | -158.21098 | 11081 ft | 337 kts | 281° |
| 2026-05-08 04:27 | 21.24417 | -158.23598 | 11270 ft | 350 kts | 282° |
| 2026-05-08 04:27 | 21.24957 | -158.26195 | 11466 ft | 362 kts | 282° |
| 2026-05-08 04:27 | 21.25511 | -158.28864 | 11657 ft | 372 kts | 282° |
| 2026-05-08 04:28 | 21.26068 | -158.31552 | 12010 ft | 376 kts | 282° |
| 2026-05-08 04:28 | 21.26641 | -158.34319 | 12239 ft | 385 kts | 282° |
| 2026-05-08 04:28 | 21.27224 | -158.37130 | 12638 ft | 387 kts | 282° |
| 2026-05-08 04:28 | 21.27805 | -158.39933 | 13200 ft | 385 kts | 282° |
| 2026-05-08 04:29 | 21.28387 | -158.42749 | 13549 ft | 389 kts | 282° |
| 2026-05-08 04:29 | 21.28973 | -158.45591 | 13889 ft | 393 kts | 282° |
| 2026-05-08 04:29 | 21.29568 | -158.48474 | 14155 ft | 398 kts | 282° |
| 2026-05-08 04:29 | 21.30168 | -158.51382 | 14507 ft | 400 kts | 282° |
| 2026-05-08 04:30 | 21.30769 | -158.54297 | 14937 ft | 400 kts | 282° |
| 2026-05-08 04:30 | 21.31370 | -158.57218 | 15294 ft | 402 kts | 282° |
| 2026-05-08 04:30 | 21.31973 | -158.60153 | 15620 ft | 405 kts | 282° |
| 2026-05-08 04:30 | 21.32582 | -158.63115 | 15910 ft | 408 kts | 282° |
| 2026-05-08 04:31 | 21.33192 | -158.66085 | 16345 ft | 408 kts | 282° |
| 2026-05-08 04:31 | 21.33803 | -158.69067 | 16716 ft | 410 kts | 282° |
| 2026-05-08 04:31 | 21.34417 | -158.72070 | 16980 ft | 414 kts | 282° |
| 2026-05-08 04:31 | 21.35036 | -158.75092 | 17363 ft | 415 kts | 282° |
| 2026-05-08 04:32 | 21.35650 | -158.78096 | 17615 ft | 420 kts | 282° |
| 2026-05-08 04:32 | 21.36285 | -158.81205 | 18008 ft | 420 kts | 282° |
| 2026-05-08 04:32 | 21.36902 | -158.84230 | 18320 ft | 424 kts | 282° |
| 2026-05-08 04:32 | 21.37535 | -158.87335 | 18596 ft | 426 kts | 282° |
| 2026-05-08 04:33 | 21.38169 | -158.90451 | 18887 ft | 428 kts | 282° |
| 2026-05-08 04:33 | 21.38806 | -158.93580 | 19146 ft | 431 kts | 282° |
| 2026-05-08 04:33 | 21.39444 | -158.96719 | 19537 ft | 430 kts | 282° |
| 2026-05-08 04:33 | 21.40081 | -158.99860 | 19800 ft | 433 kts | 282° |
| 2026-05-08 04:34 | 21.40725 | -159.03034 | 20077 ft | 435 kts | 282° |
| 2026-05-08 04:34 | 21.41369 | -159.06213 | 20424 ft | 436 kts | 282° |
| 2026-05-08 04:34 | 21.42013 | -159.09394 | 20748 ft | 437 kts | 282° |
| 2026-05-08 04:34 | 21.42660 | -159.12598 | 21003 ft | 441 kts | 282° |
| 2026-05-08 04:35 | 21.43313 | -159.15828 | 21288 ft | 444 kts | 282° |
| 2026-05-08 04:35 | 21.43967 | -159.19068 | 21644 ft | 445 kts | 281° |
| 2026-05-08 04:35 | 21.44622 | -159.22322 | 21952 ft | 448 kts | 282° |
| 2026-05-08 04:35 | 21.45285 | -159.25611 | 22211 ft | 451 kts | 282° |
| 2026-05-08 04:36 | 21.45948 | -159.28907 | 22567 ft | 452 kts | 282° |
| 2026-05-08 04:36 | 21.46612 | -159.32211 | 22902 ft | 454 kts | 281° |
| 2026-05-08 04:36 | 21.47277 | -159.35529 | 23224 ft | 456 kts | 281° |
| 2026-05-08 04:36 | 21.47947 | -159.38868 | 23498 ft | 459 kts | 281° |
| 2026-05-08 04:37 | 21.48618 | -159.42220 | 23812 ft | 460 kts | 281° |
| 2026-05-08 04:37 | 21.49282 | -159.45537 | 24134 ft | 460 kts | 281° |
| 2026-05-08 04:37 | 21.49952 | -159.48891 | 24468 ft | 461 kts | 281° |
| 2026-05-08 04:37 | 21.50626 | -159.52267 | 24743 ft | 463 kts | 281° |
| 2026-05-08 04:38 | 21.51299 | -159.55645 | 25176 ft | 462 kts | 281° |
| 2026-05-08 04:38 | 21.51971 | -159.59019 | 25478 ft | 465 kts | 281° |
| 2026-05-08 04:38 | 21.52650 | -159.62432 | 25738 ft | 469 kts | 281° |
| 2026-05-08 04:38 | 21.53330 | -159.65854 | 26177 ft | 468 kts | 281° |
| 2026-05-08 04:39 | 21.54009 | -159.69269 | 26609 ft | 467 kts | 281° |
| 2026-05-08 04:39 | 21.54688 | -159.72694 | 26902 ft | 471 kts | 281° |
| 2026-05-08 04:39 | 21.55371 | -159.76143 | 27272 ft | 472 kts | 281° |
| 2026-05-08 04:39 | 21.56053 | -159.79591 | 27620 ft | 474 kts | 281° |
| 2026-05-08 04:40 | 21.56738 | -159.83057 | 27927 ft | 476 kts | 281° |
| 2026-05-08 04:40 | 21.57298 | -159.85895 | 28188 ft | 477 kts | 281° |
| 2026-05-08 04:40 | 21.57987 | -159.89388 | 28534 ft | 479 kts | 281° |
| 2026-05-08 04:40 | 21.58680 | -159.92905 | 28857 ft | 480 kts | 281° |
| 2026-05-08 04:41 | 21.59369 | -159.96411 | 29183 ft | 481 kts | 281° |
| 2026-05-08 04:41 | 21.60062 | -159.99935 | 29487 ft | 483 kts | 281° |
| 2026-05-08 04:41 | 21.60756 | -160.03473 | 29789 ft | 484 kts | 281° |
| 2026-05-08 04:41 | 21.61442 | -160.06968 | 30100 ft | 484 kts | 281° |
| 2026-05-08 04:42 | 21.62141 | -160.10541 | 30494 ft | 482 kts | 281° |
| 2026-05-08 04:42 | 21.62821 | -160.14014 | 30919 ft | 478 kts | 281° |
| 2026-05-08 04:42 | 21.63510 | -160.17541 | 31342 ft | 475 kts | 281° |
| 2026-05-08 04:42 | 21.64178 | -160.20964 | 31730 ft | 472 kts | 281° |
| 2026-05-08 04:43 | 21.64849 | -160.24405 | 32122 ft | 469 kts | 281° |